createdAt,value
2018-07-31T00:00:39.319Z,88.09
2018-07-31T00:01:39.273Z,88.28
2018-07-31T00:03:32.169Z,88.09
2018-07-31T00:04:32.021Z,88.13
2018-07-31T00:06:24.812Z,88.28
2018-07-31T00:07:24.766Z,88.18
2018-07-31T00:09:17.608Z,88.18
2018-07-31T00:10:17.513Z,88.28
2018-07-31T00:12:10.306Z,87.89
2018-07-31T00:13:10.258Z,87.99
2018-07-31T00:15:03.083Z,88.47
2018-07-31T00:16:03.006Z,88.09
2018-07-31T00:17:55.801Z,88.47
2018-07-31T00:18:55.753Z,88.47
2018-07-31T00:20:48.579Z,88.57
2018-07-31T00:21:48.503Z,88.47
2018-07-31T00:23:41.297Z,88.85
2018-07-31T00:24:41.250Z,88.47
2018-07-31T00:26:34.077Z,88.85
2018-07-31T00:27:33.999Z,88.57
2018-07-31T00:29:26.799Z,88.85
2018-07-31T00:30:26.750Z,88.67
2018-07-31T00:32:19.576Z,88.76
2018-07-31T00:33:19.500Z,88.57
2018-07-31T00:35:12.295Z,88.09
2018-07-31T00:36:12.248Z,88.95
2018-07-31T00:38:05.072Z,88.67
2018-07-31T00:39:04.994Z,88.85
2018-07-31T00:40:57.787Z,88.67
2018-07-31T00:41:57.741Z,88.28
2018-07-31T00:43:50.563Z,88.28
2018-07-31T00:44:50.486Z,89.15
2018-07-31T00:46:43.282Z,88.37
2018-07-31T00:47:43.235Z,88.95
2018-07-31T00:49:36.058Z,89.15
2018-07-31T00:50:35.982Z,88.91
2018-07-31T00:52:28.781Z,89.15
2018-07-31T00:53:28.730Z,88.76
2018-07-31T00:55:21.553Z,88.67
2018-07-31T00:56:21.477Z,88.85
2018-07-31T00:58:14.271Z,88.95
2018-07-31T00:59:14.224Z,88.76
2018-07-31T01:01:07.048Z,89.15
2018-07-31T01:02:06.971Z,88.13
2018-07-31T01:03:59.789Z,88.76
2018-07-31T01:04:59.718Z,88.95
2018-07-31T01:06:52.542Z,88.57
2018-07-31T01:07:52.463Z,88.85
2018-07-31T01:09:45.261Z,88.85
2018-07-31T01:10:45.211Z,88.18
2018-07-31T01:12:38.156Z,88.37
2018-07-31T01:13:37.960Z,89.25
2018-07-31T01:15:30.754Z,89.15
2018-07-31T01:16:30.708Z,88.28
2018-07-31T01:18:23.549Z,88.28
2018-07-31T01:19:23.457Z,88.28
2018-07-31T01:21:16.250Z,88.85
2018-07-31T01:22:16.203Z,88.28
2018-07-31T01:24:09.026Z,88.76
2018-07-31T01:25:08.952Z,89.05
2018-07-31T01:27:01.748Z,88.28
2018-07-31T01:28:01.699Z,88.28
2018-07-31T01:29:54.522Z,88.67
2018-07-31T01:30:54.446Z,88.85
2018-07-31T01:32:47.239Z,88.67
2018-07-31T01:33:47.191Z,88.85
2018-07-31T01:35:40.018Z,88.76
2018-07-31T01:36:39.940Z,88.85
2018-07-31T01:38:32.735Z,88.85
2018-07-31T01:39:32.689Z,88.67
2018-07-31T01:41:25.512Z,88.57
2018-07-31T01:42:25.436Z,88.67
2018-07-31T01:44:18.228Z,88.18
2018-07-31T01:45:18.184Z,88.47
2018-07-31T01:47:11.008Z,88.95
2018-07-31T01:48:10.956Z,88.62
2018-07-31T01:50:03.726Z,88.53
2018-07-31T01:51:03.680Z,88.57
2018-07-31T01:52:56.503Z,88.28
2018-07-31T01:53:56.429Z,88.57
2018-07-31T01:55:49.224Z,88.85
2018-07-31T01:56:49.178Z,88.47
2018-07-31T01:58:42.002Z,88.85
2018-07-31T01:59:41.944Z,88.28
2018-07-31T02:01:34.720Z,88.57
2018-07-31T02:02:34.676Z,88.43
2018-07-31T02:04:27.500Z,88.28
2018-07-31T02:05:27.422Z,88.33
2018-07-31T02:07:20.216Z,88.04
2018-07-31T02:08:20.169Z,87.89
2018-07-31T02:10:12.991Z,87.99
2018-07-31T02:11:12.914Z,88.28
2018-07-31T02:13:05.712Z,87.99
2018-07-31T02:14:05.668Z,88.13
2018-07-31T02:15:58.487Z,88.18
2018-07-31T02:16:58.409Z,88.09
2018-07-31T02:18:51.203Z,88.37
2018-07-31T02:19:51.157Z,88.28
2018-07-31T02:21:43.983Z,88.09
2018-07-31T02:22:43.906Z,88.18
2018-07-31T02:24:36.700Z,88.09
2018-07-31T02:25:36.655Z,88.18
2018-07-31T02:27:29.480Z,88.09
2018-07-31T02:28:29.435Z,88.37
2018-07-31T02:30:22.196Z,88.37
2018-07-31T02:31:22.149Z,88.13
2018-07-31T02:33:14.973Z,88.28
2018-07-31T02:34:14.894Z,88.37
2018-07-31T02:36:07.689Z,88.37
2018-07-31T02:37:07.645Z,88.28
2018-07-31T02:39:00.491Z,88.37
2018-07-31T02:40:00.390Z,88.37
2018-07-31T02:41:53.184Z,88.47
2018-07-31T02:42:53.139Z,88.47
2018-07-31T02:44:45.977Z,88.47
2018-07-31T02:45:45.884Z,88.62
2018-07-31T02:47:38.676Z,88.47
2018-07-31T02:48:38.631Z,88.47
2018-07-31T02:50:31.453Z,88.57
2018-07-31T02:51:31.375Z,88.28
2018-07-31T02:53:24.170Z,88.37
2018-07-31T02:54:24.123Z,88.28
2018-07-31T02:56:16.950Z,88.43
2018-07-31T02:57:16.873Z,88.23
2018-07-31T02:59:09.667Z,88.47
2018-07-31T03:00:09.623Z,88.47
2018-07-31T03:02:02.443Z,88.28
2018-07-31T03:03:02.367Z,88.57
2018-07-31T03:04:55.161Z,88.47
2018-07-31T03:05:55.115Z,88.18
2018-07-31T03:07:47.938Z,88.47
2018-07-31T03:08:47.866Z,88.67
2018-07-31T03:10:40.663Z,88.28
2018-07-31T03:11:40.612Z,88.62
2018-07-31T03:13:33.434Z,88.18
2018-07-31T03:14:33.359Z,88.67
2018-07-31T03:16:26.151Z,88.47
2018-07-31T03:17:26.104Z,88.18
2018-07-31T03:19:18.947Z,88.18
2018-07-31T03:20:18.852Z,88.09
2018-07-31T03:22:11.645Z,88.18
2018-07-31T03:23:11.601Z,87.99
2018-07-31T03:25:04.421Z,88.28
2018-07-31T03:26:04.342Z,88.09
2018-07-31T03:27:57.135Z,88.04
2018-07-31T03:28:57.090Z,88.18
2018-07-31T03:30:49.913Z,88.18
2018-07-31T03:31:49.846Z,88.18
2018-07-31T03:33:42.630Z,88.28
2018-07-31T03:34:42.582Z,88.18
2018-07-31T03:36:35.405Z,87.89
2018-07-31T03:37:35.330Z,88.13
2018-07-31T03:39:28.122Z,87.99
2018-07-31T03:40:28.076Z,87.75
2018-07-31T03:42:20.899Z,87.99
2018-07-31T03:43:20.823Z,88.04
2018-07-31T03:45:13.614Z,87.75
2018-07-31T03:46:13.570Z,87.75
2018-07-31T03:48:06.393Z,88.09
2018-07-31T03:49:06.316Z,87.75
2018-07-31T03:50:59.227Z,87.89
2018-07-31T03:51:59.064Z,87.46
2018-07-31T03:53:51.885Z,87.85
2018-07-31T03:54:51.809Z,87.95
2018-07-31T03:56:44.601Z,87.79
2018-07-31T03:57:44.554Z,88.09
2018-07-31T03:59:37.377Z,87.99
2018-07-31T04:00:37.298Z,87.95
2018-07-31T04:02:30.092Z,87.75
2018-07-31T04:03:30.047Z,88.09
2018-07-31T04:05:22.880Z,87.75
2018-07-31T04:06:22.795Z,88.09
2018-07-31T04:08:15.587Z,87.99
2018-07-31T04:09:15.540Z,87.95
2018-07-31T04:11:08.381Z,87.79
2018-07-31T04:12:08.290Z,87.89
2018-07-31T04:14:01.084Z,87.70
2018-07-31T04:15:01.033Z,87.95
2018-07-31T04:16:53.940Z,88.18
2018-07-31T04:17:53.780Z,87.55
2018-07-31T04:19:46.577Z,87.75
2018-07-31T04:20:46.530Z,88.04
2018-07-31T04:22:39.352Z,87.79
2018-07-31T04:23:39.275Z,87.60
2018-07-31T04:25:32.070Z,87.46
2018-07-31T04:26:32.022Z,87.46
2018-07-31T04:28:24.849Z,87.60
2018-07-31T04:29:24.772Z,87.36
2018-07-31T04:31:17.564Z,87.60
2018-07-31T04:32:17.521Z,87.65
2018-07-31T04:34:10.340Z,87.55
2018-07-31T04:35:10.262Z,87.55
2018-07-31T04:37:03.056Z,87.50
2018-07-31T04:38:03.011Z,87.55
2018-07-31T04:39:55.835Z,87.65
2018-07-31T04:40:55.758Z,87.75
2018-07-31T04:42:48.554Z,87.75
2018-07-31T04:43:48.510Z,87.46
2018-07-31T04:45:41.330Z,87.65
2018-07-31T04:46:41.253Z,87.55
2018-07-31T04:48:34.048Z,87.41
2018-07-31T04:49:34.000Z,87.75
2018-07-31T04:51:26.826Z,87.60
2018-07-31T04:52:26.753Z,87.70
2018-07-31T04:54:19.544Z,87.60
2018-07-31T04:55:19.499Z,87.85
2018-07-31T04:57:12.325Z,87.75
2018-07-31T04:58:12.251Z,87.46
2018-07-31T05:00:05.045Z,87.70
2018-07-31T05:01:04.999Z,87.89
2018-07-31T05:02:57.824Z,87.70
2018-07-31T05:03:57.746Z,87.75
2018-07-31T05:05:50.541Z,87.79
2018-07-31T05:06:50.494Z,87.65
2018-07-31T05:08:43.318Z,87.50
2018-07-31T05:09:43.240Z,87.70
2018-07-31T05:11:36.035Z,87.65
2018-07-31T05:12:35.989Z,87.79
2018-07-31T05:14:28.831Z,87.89
2018-07-31T05:15:28.737Z,87.50
2018-07-31T05:17:21.531Z,87.50
2018-07-31T05:18:21.562Z,87.46
2018-07-31T05:20:14.310Z,87.70
2018-07-31T05:21:14.232Z,87.75
2018-07-31T05:23:07.026Z,87.50
2018-07-31T05:24:06.980Z,87.70
2018-07-31T05:25:59.804Z,87.55
2018-07-31T05:26:59.727Z,87.50
2018-07-31T05:28:52.523Z,87.50
2018-07-31T05:29:52.472Z,87.55
2018-07-31T05:31:45.313Z,87.79
2018-07-31T05:32:45.280Z,87.50
2018-07-31T05:34:38.013Z,87.70
2018-07-31T05:35:37.967Z,87.79
2018-07-31T05:37:30.789Z,87.99
2018-07-31T05:38:30.713Z,88.04
2018-07-31T05:40:23.508Z,87.95
2018-07-31T05:41:23.461Z,88.09
2018-07-31T05:43:16.286Z,87.89
2018-07-31T05:44:16.208Z,87.99
2018-07-31T05:46:09.033Z,88.09
2018-07-31T05:47:08.952Z,88.09
2018-07-31T05:49:01.777Z,87.99
2018-07-31T05:50:01.700Z,88.09
2018-07-31T05:51:54.540Z,88.09
2018-07-31T05:52:54.447Z,88.18
2018-07-31T05:54:47.275Z,88.09
2018-07-31T05:55:47.194Z,88.09
2018-07-31T05:57:39.987Z,87.79
2018-07-31T05:58:39.942Z,88.09
2018-07-31T06:00:32.765Z,88.04
2018-07-31T06:01:32.691Z,87.89
2018-07-31T06:03:25.485Z,88.09
2018-07-31T06:04:25.454Z,87.99
2018-07-31T06:06:18.275Z,87.99
2018-07-31T06:07:18.186Z,88.09
2018-07-31T06:09:10.977Z,87.79
2018-07-31T06:10:10.930Z,87.60
2018-07-31T06:12:03.753Z,87.60
2018-07-31T06:13:03.679Z,87.79
2018-07-31T06:14:56.470Z,87.89
2018-07-31T06:15:56.423Z,87.89
2018-07-31T06:17:49.249Z,87.89
2018-07-31T06:18:49.174Z,87.79
2018-07-31T06:20:41.965Z,87.79
2018-07-31T06:21:41.919Z,87.79
2018-07-31T06:23:34.744Z,87.89
2018-07-31T06:24:34.667Z,88.28
2018-07-31T06:26:27.461Z,88.28
2018-07-31T06:27:27.415Z,88.09
2018-07-31T06:29:20.238Z,88.18
2018-07-31T06:30:20.162Z,88.18
2018-07-31T06:32:12.954Z,88.18
2018-07-31T06:33:12.911Z,88.37
2018-07-31T06:35:05.734Z,88.76
2018-07-31T06:36:05.657Z,88.71
2018-07-31T06:37:58.452Z,88.43
2018-07-31T06:38:58.404Z,88.47
2018-07-31T06:40:51.248Z,88.47
2018-07-31T06:41:51.154Z,88.57
2018-07-31T06:43:43.950Z,88.47
2018-07-31T06:44:43.903Z,88.57
2018-07-31T06:46:36.741Z,88.47
2018-07-31T06:47:36.645Z,88.47
2018-07-31T06:49:29.441Z,88.47
2018-07-31T06:50:29.395Z,88.28
2018-07-31T06:52:22.235Z,88.28
2018-07-31T06:53:22.142Z,88.18
2018-07-31T06:55:14.936Z,88.67
2018-07-31T06:56:14.890Z,88.57
2018-07-31T06:58:07.715Z,88.37
2018-07-31T06:59:07.639Z,88.28
2018-07-31T07:01:00.435Z,88.18
2018-07-31T07:02:00.452Z,88.18
2018-07-31T07:03:53.230Z,88.09
2018-07-31T07:04:53.134Z,88.37
2018-07-31T07:06:45.928Z,88.33
2018-07-31T07:07:45.882Z,88.43
2018-07-31T07:09:38.709Z,88.28
2018-07-31T07:10:38.628Z,88.28
2018-07-31T07:12:31.429Z,88.09
2018-07-31T07:13:31.382Z,88.09
2018-07-31T07:15:24.271Z,88.09
2018-07-31T07:16:24.131Z,87.89
2018-07-31T07:18:16.924Z,87.89
2018-07-31T07:19:16.878Z,87.89
2018-07-31T07:21:09.719Z,87.79
2018-07-31T07:22:09.627Z,87.89
2018-07-31T07:24:02.419Z,87.79
2018-07-31T07:25:02.373Z,87.79
2018-07-31T07:26:55.206Z,87.79
2018-07-31T07:27:55.156Z,87.79
2018-07-31T07:29:47.917Z,87.75
2018-07-31T07:30:47.870Z,87.89
2018-07-31T07:32:40.694Z,87.79
2018-07-31T07:33:40.674Z,87.70
2018-07-31T07:35:33.409Z,87.99
2018-07-31T07:36:33.362Z,88.09
2018-07-31T07:38:26.197Z,87.50
2018-07-31T07:39:26.112Z,88.09
2018-07-31T07:41:18.908Z,87.46
2018-07-31T07:42:18.860Z,87.46
2018-07-31T07:44:11.689Z,87.99
2018-07-31T07:45:11.609Z,87.99
2018-07-31T07:47:04.403Z,88.09
2018-07-31T07:48:04.356Z,87.99
2018-07-31T07:49:57.180Z,87.55
2018-07-31T07:50:57.103Z,88.13
2018-07-31T07:52:49.899Z,87.65
2018-07-31T07:53:49.879Z,87.79
2018-07-31T07:55:42.704Z,88.18
2018-07-31T07:56:42.597Z,87.50
2018-07-31T07:58:35.390Z,87.99
2018-07-31T07:59:35.343Z,88.09
2018-07-31T08:01:28.183Z,87.79
2018-07-31T08:02:28.088Z,87.79
2018-07-31T08:04:20.880Z,87.79
2018-07-31T08:05:20.839Z,87.41
2018-07-31T08:07:13.674Z,87.75
2018-07-31T08:08:13.578Z,87.36
2018-07-31T08:10:06.375Z,88.28
2018-07-31T08:11:06.329Z,87.50
2018-07-31T08:12:59.150Z,87.79
2018-07-31T08:13:59.073Z,87.55
2018-07-31T08:15:51.868Z,87.70
2018-07-31T08:16:51.821Z,87.79
2018-07-31T08:18:44.645Z,87.79
2018-07-31T08:19:44.570Z,87.70
2018-07-31T08:21:37.363Z,87.79
2018-07-31T08:22:37.327Z,87.89
2018-07-31T08:24:30.160Z,87.79
2018-07-31T08:25:30.094Z,87.89
2018-07-31T08:27:22.860Z,87.46
2018-07-31T08:28:22.809Z,87.70
2018-07-31T08:30:15.633Z,87.79
2018-07-31T08:31:15.557Z,87.70
2018-07-31T08:33:08.350Z,87.55
2018-07-31T08:34:08.307Z,87.70
2018-07-31T08:36:01.143Z,87.70
2018-07-31T08:37:01.049Z,87.21
2018-07-31T08:38:53.842Z,87.70
2018-07-31T08:39:53.797Z,87.70
2018-07-31T08:41:46.639Z,87.79
2018-07-31T08:42:46.547Z,87.21
2018-07-31T08:44:39.339Z,87.36
2018-07-31T08:45:39.295Z,87.46
2018-07-31T08:47:32.141Z,87.50
2018-07-31T08:48:32.039Z,87.46
2018-07-31T08:50:24.833Z,87.50
2018-07-31T08:51:24.787Z,87.50
2018-07-31T08:53:17.609Z,87.41
2018-07-31T08:54:17.532Z,87.36
2018-07-31T08:56:10.328Z,87.21
2018-07-31T08:57:10.282Z,87.41
2018-07-31T08:59:03.107Z,87.70
2018-07-31T09:00:03.029Z,87.31
2018-07-31T09:01:55.823Z,87.21
2018-07-31T09:02:55.778Z,87.60
2018-07-31T09:04:48.620Z,87.70
2018-07-31T09:05:48.525Z,87.60
2018-07-31T09:07:41.320Z,87.41
2018-07-31T09:08:41.348Z,87.41
2018-07-31T09:10:34.115Z,87.12
2018-07-31T09:11:34.022Z,87.41
2018-07-31T09:13:26.815Z,87.41
2018-07-31T09:14:26.769Z,87.02
2018-07-31T09:16:19.595Z,87.41
2018-07-31T09:17:19.518Z,87.41
2018-07-31T09:19:12.315Z,87.12
2018-07-31T09:20:12.265Z,87.21
2018-07-31T09:22:05.093Z,87.21
2018-07-31T09:23:05.014Z,87.79
2018-07-31T09:24:57.808Z,87.02
2018-07-31T09:25:57.762Z,87.21
2018-07-31T09:27:50.602Z,87.21
2018-07-31T09:28:50.510Z,87.31
2018-07-31T09:30:43.366Z,87.21
2018-07-31T09:31:43.260Z,87.70
2018-07-31T09:33:36.086Z,87.21
2018-07-31T09:34:36.008Z,87.21
2018-07-31T09:36:28.842Z,87.21
2018-07-31T09:37:28.756Z,87.12
2018-07-31T09:39:21.593Z,87.31
2018-07-31T09:40:21.499Z,87.21
2018-07-31T09:42:14.299Z,87.12
2018-07-31T09:43:14.253Z,87.21
2018-07-31T09:45:07.095Z,87.21
2018-07-31T09:46:07.001Z,87.31
2018-07-31T09:47:59.795Z,87.31
2018-07-31T09:48:59.749Z,87.31
2018-07-31T09:50:52.592Z,87.07
2018-07-31T09:51:52.500Z,87.41
2018-07-31T09:53:45.294Z,87.50
2018-07-31T09:54:45.250Z,87.31
2018-07-31T09:56:38.090Z,87.31
2018-07-31T09:57:37.995Z,87.12
2018-07-31T09:59:30.797Z,87.31
2018-07-31T10:00:30.750Z,87.31
2018-07-31T10:02:23.590Z,87.50
2018-07-31T10:03:23.496Z,87.50
2018-07-31T10:05:16.306Z,87.12
2018-07-31T10:06:16.245Z,87.46
2018-07-31T10:08:09.072Z,86.92
2018-07-31T10:09:09.000Z,86.82
2018-07-31T10:11:01.791Z,86.82
2018-07-31T10:12:01.761Z,86.82
2018-07-31T10:13:54.584Z,86.73
2018-07-31T10:14:54.488Z,86.82
2018-07-31T10:16:47.283Z,86.92
2018-07-31T10:17:47.258Z,86.54
2018-07-31T10:19:40.079Z,86.63
2018-07-31T10:20:39.987Z,86.54
2018-07-31T10:22:32.780Z,86.59
2018-07-31T10:23:32.734Z,86.92
2018-07-31T10:25:25.558Z,86.92
2018-07-31T10:26:25.482Z,86.54
2018-07-31T10:28:18.275Z,86.82
2018-07-31T10:29:18.230Z,86.92
2018-07-31T10:31:11.070Z,86.54
2018-07-31T10:32:10.978Z,86.44
2018-07-31T10:34:03.769Z,86.73
2018-07-31T10:35:03.721Z,86.63
2018-07-31T10:36:56.549Z,86.54
2018-07-31T10:37:56.555Z,86.44
2018-07-31T10:39:49.268Z,86.54
2018-07-31T10:40:49.222Z,86.63
2018-07-31T10:42:42.047Z,86.44
2018-07-31T10:43:42.025Z,86.63
2018-07-31T10:45:34.762Z,86.44
2018-07-31T10:46:34.715Z,86.44
2018-07-31T10:48:27.540Z,86.49
2018-07-31T10:49:27.463Z,86.63
2018-07-31T10:51:20.259Z,86.49
2018-07-31T10:52:20.224Z,86.73
2018-07-31T10:54:13.034Z,86.63
2018-07-31T10:55:12.961Z,86.54
2018-07-31T10:57:05.752Z,86.59
2018-07-31T10:58:05.771Z,86.59
2018-07-31T10:59:58.613Z,86.63
2018-07-31T11:00:58.453Z,86.78
2018-07-31T11:02:51.281Z,86.73
2018-07-31T11:03:51.233Z,86.78
2018-07-31T11:05:44.042Z,86.54
2018-07-31T11:06:43.950Z,86.82
2018-07-31T11:08:36.741Z,86.88
2018-07-31T11:09:36.694Z,86.49
2018-07-31T11:11:29.518Z,86.63
2018-07-31T11:12:29.442Z,86.63
2018-07-31T11:14:22.235Z,86.63
2018-07-31T11:15:22.190Z,86.73
2018-07-31T11:17:15.030Z,86.73
2018-07-31T11:18:14.935Z,86.92
2018-07-31T11:20:07.730Z,86.54
2018-07-31T11:21:07.788Z,86.92
2018-07-31T11:23:00.506Z,86.63
2018-07-31T11:24:00.430Z,86.73
2018-07-31T11:25:53.220Z,86.73
2018-07-31T11:26:53.173Z,86.73
2018-07-31T11:28:46.005Z,86.73
2018-07-31T11:29:45.923Z,86.63
2018-07-31T11:31:38.717Z,86.54
2018-07-31T11:32:38.671Z,86.73
2018-07-31T11:34:31.496Z,86.73
2018-07-31T11:35:31.421Z,86.73
2018-07-31T11:37:24.213Z,86.82
2018-07-31T11:38:24.205Z,87.02
2018-07-31T11:40:16.990Z,86.78
2018-07-31T11:41:16.912Z,86.82
2018-07-31T11:43:09.707Z,86.82
2018-07-31T11:44:09.660Z,86.73
2018-07-31T11:46:02.484Z,86.82
2018-07-31T11:47:02.412Z,86.73
2018-07-31T11:48:55.203Z,86.63
2018-07-31T11:49:55.225Z,86.54
2018-07-31T11:51:47.998Z,86.54
2018-07-31T11:52:47.905Z,86.69
2018-07-31T11:54:40.700Z,86.24
2018-07-31T11:55:40.659Z,86.54
2018-07-31T11:57:33.478Z,86.54
2018-07-31T11:58:33.398Z,86.73
2018-07-31T12:00:26.192Z,86.73
2018-07-31T12:01:26.145Z,86.54
2018-07-31T12:03:18.994Z,86.49
2018-07-31T12:04:18.963Z,86.82
2018-07-31T12:06:11.686Z,86.98
2018-07-31T12:07:11.638Z,86.78
2018-07-31T12:09:04.482Z,87.02
2018-07-31T12:10:04.387Z,86.44
2018-07-31T12:11:57.180Z,86.44
2018-07-31T12:12:57.135Z,86.82
2018-07-31T12:14:49.957Z,86.40
2018-07-31T12:15:49.879Z,86.54
2018-07-31T12:17:42.673Z,86.44
2018-07-31T12:18:42.627Z,86.44
2018-07-31T12:20:35.453Z,86.54
2018-07-31T12:21:35.375Z,86.34
2018-07-31T12:23:28.169Z,86.73
2018-07-31T12:24:28.126Z,86.63
2018-07-31T12:26:20.949Z,86.63
2018-07-31T12:27:20.874Z,86.63
2018-07-31T12:29:13.662Z,86.92
2018-07-31T12:30:13.615Z,86.73
2018-07-31T12:32:06.442Z,86.15
2018-07-31T12:33:06.370Z,86.44
2018-07-31T12:34:59.153Z,86.34
2018-07-31T12:35:59.107Z,86.63
2018-07-31T12:37:51.930Z,86.34
2018-07-31T12:38:51.854Z,86.92
2018-07-31T12:40:44.647Z,86.34
2018-07-31T12:41:44.601Z,86.24
2018-07-31T12:43:37.442Z,86.92
2018-07-31T12:44:37.353Z,86.24
2018-07-31T12:46:30.142Z,86.63
2018-07-31T12:47:30.096Z,86.15
2018-07-31T12:49:22.934Z,86.44
2018-07-31T12:50:22.842Z,86.44
2018-07-31T12:52:15.636Z,86.24
2018-07-31T12:53:15.589Z,86.44
2018-07-31T12:55:08.431Z,86.63
2018-07-31T12:56:08.334Z,86.44
2018-07-31T12:58:01.131Z,86.63
2018-07-31T12:59:01.086Z,86.92
2018-07-31T13:00:53.911Z,86.44
2018-07-31T13:01:53.834Z,86.82
2018-07-31T13:03:46.627Z,86.82
2018-07-31T13:04:46.578Z,86.44
2018-07-31T13:06:39.425Z,86.44
2018-07-31T13:07:39.330Z,86.54
2018-07-31T13:09:32.124Z,86.15
2018-07-31T13:10:32.078Z,86.54
2018-07-31T13:12:24.902Z,86.24
2018-07-31T13:13:24.833Z,86.44
2018-07-31T13:15:17.619Z,86.44
2018-07-31T13:16:17.576Z,86.44
2018-07-31T13:18:10.399Z,86.34
2018-07-31T13:19:10.322Z,86.15
2018-07-31T13:21:03.118Z,86.24
2018-07-31T13:22:03.071Z,86.54
2018-07-31T13:23:55.896Z,86.24
2018-07-31T13:24:55.819Z,86.05
2018-07-31T13:26:48.613Z,86.34
2018-07-31T13:27:48.609Z,86.34
2018-07-31T13:29:41.395Z,86.05
2018-07-31T13:30:41.369Z,85.96
2018-07-31T13:32:34.111Z,85.96
2018-07-31T13:33:34.063Z,86.15
2018-07-31T13:35:26.890Z,85.66
2018-07-31T13:36:26.814Z,85.76
2018-07-31T13:38:19.604Z,85.66
2018-07-31T13:39:19.559Z,85.57
2018-07-31T13:41:12.403Z,85.57
2018-07-31T13:42:12.332Z,85.66
2018-07-31T13:44:05.209Z,85.86
2018-07-31T13:45:05.058Z,85.76
2018-07-31T13:46:57.896Z,85.47
2018-07-31T13:47:57.805Z,85.76
2018-07-31T13:49:50.599Z,85.76
2018-07-31T13:50:50.552Z,85.76
2018-07-31T13:52:43.376Z,85.86
2018-07-31T13:53:43.297Z,86.05
2018-07-31T13:55:36.092Z,86.05
2018-07-31T13:56:36.045Z,86.05
2018-07-31T13:58:28.875Z,86.05
2018-07-31T13:59:28.793Z,86.24
2018-07-31T14:01:21.587Z,86.34
2018-07-31T14:02:21.541Z,85.76
2018-07-31T14:04:14.436Z,86.15
2018-07-31T14:05:14.291Z,85.86
2018-07-31T14:07:07.140Z,85.86
2018-07-31T14:08:07.039Z,85.76
2018-07-31T14:09:59.883Z,85.47
2018-07-31T14:10:59.783Z,85.37
2018-07-31T14:12:52.577Z,85.57
2018-07-31T14:13:52.595Z,85.18
2018-07-31T14:15:45.375Z,85.66
2018-07-31T14:16:45.280Z,85.57
2018-07-31T14:18:38.075Z,85.57
2018-07-31T14:19:38.029Z,85.57
2018-07-31T14:21:30.874Z,85.47
2018-07-31T14:22:30.779Z,85.47
2018-07-31T14:24:23.585Z,85.08
2018-07-31T14:25:23.524Z,85.18
2018-07-31T14:27:16.349Z,85.08
2018-07-31T14:28:16.272Z,85.08
2018-07-31T14:30:09.067Z,85.37
2018-07-31T14:31:09.022Z,85.37
2018-07-31T14:33:01.868Z,85.18
2018-07-31T14:34:01.770Z,85.08
2018-07-31T14:35:54.561Z,85.37
2018-07-31T14:36:54.515Z,84.69
2018-07-31T14:38:47.404Z,84.89
2018-07-31T14:39:47.261Z,85.28
2018-07-31T14:41:40.057Z,85.18
2018-07-31T14:42:40.011Z,85.08
2018-07-31T14:44:32.834Z,84.99
2018-07-31T14:45:32.756Z,84.89
2018-07-31T14:47:25.551Z,85.18
2018-07-31T14:48:25.550Z,85.08
2018-07-31T14:50:18.345Z,85.08
2018-07-31T14:51:18.252Z,84.89
2018-07-31T14:53:11.046Z,84.89
2018-07-31T14:54:11.050Z,84.99
2018-07-31T14:56:03.845Z,85.08
2018-07-31T14:57:03.747Z,85.18
2018-07-31T14:58:56.541Z,85.18
2018-07-31T14:59:56.503Z,84.89
2018-07-31T15:01:49.320Z,85.08
2018-07-31T15:02:49.245Z,84.89
2018-07-31T15:04:42.038Z,85.08
2018-07-31T15:05:41.993Z,85.08
2018-07-31T15:07:34.833Z,85.18
2018-07-31T15:08:34.743Z,85.28
2018-07-31T15:10:27.532Z,85.37
2018-07-31T15:11:27.489Z,84.69
2018-07-31T15:13:20.311Z,85.37
2018-07-31T15:14:20.234Z,85.08
2018-07-31T15:16:13.029Z,85.18
2018-07-31T15:17:12.983Z,84.41
2018-07-31T15:19:05.803Z,85.18
2018-07-31T15:20:05.728Z,84.41
2018-07-31T15:21:58.521Z,85.18
2018-07-31T15:22:58.474Z,84.50
2018-07-31T15:24:51.314Z,85.18
2018-07-31T15:25:51.218Z,84.69
2018-07-31T15:27:44.013Z,85.08
2018-07-31T15:28:43.968Z,84.79
2018-07-31T15:30:36.792Z,84.60
2018-07-31T15:31:36.716Z,84.41
2018-07-31T15:33:29.510Z,84.21
2018-07-31T15:34:29.463Z,84.79
2018-07-31T15:36:22.312Z,85.18
2018-07-31T15:37:22.219Z,84.11
2018-07-31T15:39:15.012Z,84.31
2018-07-31T15:40:14.965Z,84.50
2018-07-31T15:42:07.787Z,84.31
2018-07-31T15:43:07.710Z,84.50
2018-07-31T15:45:00.502Z,84.31
2018-07-31T15:46:00.455Z,84.41
2018-07-31T15:47:53.280Z,84.41
2018-07-31T15:48:53.201Z,84.41
2018-07-31T15:50:45.995Z,84.50
2018-07-31T15:51:45.968Z,84.60
2018-07-31T15:53:38.774Z,84.41
2018-07-31T15:54:38.698Z,84.41
2018-07-31T15:56:31.493Z,84.41
2018-07-31T15:57:31.447Z,84.41
2018-07-31T15:59:24.290Z,84.69
2018-07-31T16:00:24.210Z,84.79
2018-07-31T16:02:17.019Z,84.41
2018-07-31T16:03:17.029Z,85.37
2018-07-31T16:05:09.770Z,85.18
2018-07-31T16:06:09.695Z,85.08
2018-07-31T16:08:02.496Z,84.99
2018-07-31T16:09:02.447Z,84.99
2018-07-31T16:10:55.296Z,84.60
2018-07-31T16:11:55.198Z,84.69
2018-07-31T16:13:47.991Z,85.37
2018-07-31T16:14:48.021Z,84.99
2018-07-31T16:16:40.772Z,85.08
2018-07-31T16:17:40.695Z,85.37
2018-07-31T16:19:33.486Z,85.57
2018-07-31T16:20:33.439Z,85.47
2018-07-31T16:22:26.279Z,85.37
2018-07-31T16:23:26.185Z,85.47
2018-07-31T16:25:18.978Z,85.28
2018-07-31T16:26:18.933Z,85.18
2018-07-31T16:28:11.756Z,84.99
2018-07-31T16:29:11.681Z,84.99
2018-07-31T16:31:04.473Z,85.86
2018-07-31T16:32:04.428Z,85.96
2018-07-31T16:33:57.254Z,85.96
2018-07-31T16:34:57.175Z,85.86
2018-07-31T16:36:49.972Z,85.08
2018-07-31T16:37:49.925Z,85.28
2018-07-31T16:39:42.809Z,85.57
2018-07-31T16:40:42.674Z,85.47
2018-07-31T16:42:35.469Z,85.57
2018-07-31T16:43:35.422Z,85.66
2018-07-31T16:45:28.251Z,85.66
2018-07-31T16:46:28.172Z,85.57
2018-07-31T16:48:20.964Z,85.18
2018-07-31T16:49:20.916Z,85.18
2018-07-31T16:51:13.754Z,84.79
2018-07-31T16:52:14.315Z,85.18
2018-07-31T16:54:06.462Z,84.99
2018-07-31T16:55:06.416Z,84.99
2018-07-31T16:56:59.289Z,85.18
2018-07-31T16:57:59.164Z,85.08
2018-07-31T16:59:51.960Z,85.08
2018-07-31T17:00:51.912Z,84.89
2018-07-31T17:02:44.752Z,85.08
2018-07-31T17:03:44.657Z,85.28
2018-07-31T17:05:37.452Z,84.50
2018-07-31T17:06:37.407Z,84.31
2018-07-31T17:08:30.230Z,84.35
2018-07-31T17:09:30.154Z,84.50
2018-07-31T17:11:22.954Z,84.41
2018-07-31T17:12:22.905Z,84.50
2018-07-31T17:14:15.729Z,84.41
2018-07-31T17:15:15.651Z,84.41
2018-07-31T17:17:08.447Z,84.50
2018-07-31T17:18:08.401Z,84.89
2018-07-31T17:20:01.227Z,84.69
2018-07-31T17:21:01.151Z,84.31
2018-07-31T17:22:53.943Z,84.41
2018-07-31T17:23:53.896Z,84.79
2018-07-31T17:25:46.738Z,84.60
2018-07-31T17:26:46.645Z,84.11
2018-07-31T17:28:39.494Z,84.31
2018-07-31T17:29:39.390Z,84.11
2018-07-31T17:31:32.215Z,84.31
2018-07-31T17:32:32.140Z,83.92
2018-07-31T17:34:24.937Z,84.60
2018-07-31T17:35:24.896Z,84.69
2018-07-31T17:37:17.729Z,84.31
2018-07-31T17:38:17.637Z,84.79
2018-07-31T17:40:10.432Z,84.89
2018-07-31T17:41:10.385Z,84.89
2018-07-31T17:43:03.208Z,84.55
2018-07-31T17:44:03.134Z,84.50
2018-07-31T17:45:55.925Z,84.60
2018-07-31T17:46:55.880Z,84.69
2018-07-31T17:48:48.704Z,84.93
2018-07-31T17:49:48.628Z,84.55
2018-07-31T17:51:41.423Z,84.69
2018-07-31T17:52:41.426Z,84.50
2018-07-31T17:54:34.202Z,84.50
2018-07-31T17:55:34.124Z,84.41
2018-07-31T17:57:26.919Z,84.31
2018-07-31T17:58:26.967Z,84.50
2018-07-31T18:00:19.696Z,84.41
2018-07-31T18:01:19.622Z,84.11
2018-07-31T18:03:12.416Z,83.92
2018-07-31T18:04:12.369Z,84.69
2018-07-31T18:06:05.212Z,84.45
2018-07-31T18:07:05.117Z,84.50
2018-07-31T18:08:57.906Z,84.50
2018-07-31T18:09:57.860Z,84.50
2018-07-31T18:11:50.684Z,84.50
2018-07-31T18:12:50.610Z,84.60
2018-07-31T18:14:43.431Z,84.55
2018-07-31T18:15:43.355Z,84.50
2018-07-31T18:17:36.179Z,84.79
2018-07-31T18:18:36.102Z,84.60
2018-07-31T18:20:28.897Z,84.60
2018-07-31T18:21:28.877Z,84.50
2018-07-31T18:23:21.683Z,84.60
2018-07-31T18:24:21.600Z,84.41
2018-07-31T18:26:14.392Z,84.41
2018-07-31T18:27:14.343Z,84.69
2018-07-31T18:29:07.169Z,85.08
2018-07-31T18:30:07.090Z,85.31
2018-07-31T18:31:59.885Z,85.22